createdAt,value
2023-06-14T00:00:09.225Z,100099.88
2023-06-14T00:00:32.546Z,100102.48
2023-06-14T00:00:54.878Z,100100.73
2023-06-14T00:01:18.154Z,100101.20
2023-06-14T00:01:40.555Z,100102.31
2023-06-14T00:02:02.991Z,100098.10
2023-06-14T00:02:25.466Z,100098.23
2023-06-14T00:02:48.290Z,100101.80
2023-06-14T00:03:18.988Z,100102.47
2023-06-14T00:03:41.915Z,100101.89
2023-06-14T00:04:06.316Z,100103.71
2023-06-14T00:04:29.220Z,100104.45
2023-06-14T00:04:53.957Z,100104.58
2023-06-14T00:05:16.461Z,100105.78
2023-06-14T00:05:44.687Z,100103.56
2023-06-14T00:06:07.639Z,100102.52
2023-06-14T00:06:30.109Z,100106.29
2023-06-14T00:06:52.593Z,100105.54
2023-06-14T00:07:15.272Z,100104.16
2023-06-14T00:07:45.702Z,100106.80
2023-06-14T00:08:09.315Z,100106.48
2023-06-14T00:08:31.604Z,100106.15
2023-06-14T00:08:55.532Z,100106.04
2023-06-14T00:09:20.809Z,100106.16
2023-06-14T00:09:43.189Z,100105.25
2023-06-14T00:10:06.156Z,100104.48
2023-06-14T00:10:32.152Z,100106.88
2023-06-14T00:10:54.813Z,100104.90
2023-06-14T00:11:17.203Z,100105.58
2023-06-14T00:11:40.186Z,100106.60
2023-06-14T00:12:02.638Z,100106.80
2023-06-14T00:12:25.798Z,100108.95
2023-06-14T00:12:48.201Z,100106.80
2023-06-14T00:13:10.802Z,100107.52
2023-06-14T00:13:33.089Z,100106.40
2023-06-14T00:13:55.496Z,100108.65
2023-06-14T00:14:17.898Z,100105.05
2023-06-14T00:14:40.298Z,100107.02
2023-06-14T00:15:02.743Z,100105.86
2023-06-14T00:15:25.194Z,100110.81
2023-06-14T00:15:48.723Z,100107.64
2023-06-14T00:16:11.041Z,100106.56
2023-06-14T00:16:34.715Z,100107.84
2023-06-14T00:17:00.031Z,100108.51
2023-06-14T00:17:23.025Z,100109.77
2023-06-14T00:17:48.897Z,100111.41
2023-06-14T00:18:13.238Z,100109.46
2023-06-14T00:18:35.507Z,100111.08
2023-06-14T00:18:57.926Z,100110.77
2023-06-14T00:19:20.996Z,100112.38
2023-06-14T00:19:43.437Z,100107.38
2023-06-14T00:20:08.995Z,100109.48
2023-06-14T00:20:33.929Z,100108.41
2023-06-14T00:20:56.798Z,100108.13
2023-06-14T00:21:19.370Z,100109.52
2023-06-14T00:21:41.808Z,100110.73
2023-06-14T00:22:04.385Z,100109.16
2023-06-14T00:22:26.871Z,100110.73
2023-06-14T00:22:49.405Z,100109.05
2023-06-14T00:23:12.390Z,100108.44
2023-06-14T00:23:34.782Z,100106.73
2023-06-14T00:23:58.375Z,100108.50
2023-06-14T00:24:21.278Z,100109.12
2023-06-14T00:24:43.606Z,100110.48
2023-06-14T00:25:19.181Z,100106.77
2023-06-14T00:25:48.917Z,100109.81
2023-06-14T00:26:11.803Z,100112.11
2023-06-14T00:26:34.779Z,100109.75
2023-06-14T00:26:57.396Z,100114.80
2023-06-14T00:27:19.786Z,100112.62
2023-06-14T00:27:42.098Z,100113.90
2023-06-14T00:28:05.078Z,100111.73
2023-06-14T00:28:27.495Z,100115.77
2023-06-14T00:28:49.819Z,100115.57
2023-06-14T00:29:12.288Z,100113.83
2023-06-14T00:29:34.685Z,100109.14
2023-06-14T00:29:58.130Z,100113.64
2023-06-14T00:30:22.871Z,100112.66
2023-06-14T00:30:47.711Z,100113.36
2023-06-14T00:31:10.174Z,100116.65
2023-06-14T00:31:32.663Z,100113.05
2023-06-14T00:31:55.133Z,100116.30
2023-06-14T00:32:19.417Z,100112.80
2023-06-14T00:32:44.300Z,100113.70
2023-06-14T00:33:06.942Z,100117.17
2023-06-14T00:33:29.399Z,100113.45
2023-06-14T00:33:52.010Z,100109.42
2023-06-14T00:34:14.334Z,100110.79
2023-06-14T00:34:37.322Z,100112.48
2023-06-14T00:34:59.581Z,100111.15
2023-06-14T00:35:22.023Z,100110.98
2023-06-14T00:35:44.518Z,100109.63
2023-06-14T00:36:06.836Z,100110.04
2023-06-14T00:36:29.410Z,100107.33
2023-06-14T00:36:51.835Z,100110.64
2023-06-14T00:37:14.204Z,100109.48
2023-06-14T00:37:39.158Z,100114.77
2023-06-14T00:38:02.841Z,100109.00
2023-06-14T00:38:25.218Z,100108.38
2023-06-14T00:38:47.901Z,100110.65
2023-06-14T00:39:11.043Z,100111.81
2023-06-14T00:39:33.401Z,100113.08
2023-06-14T00:39:56.425Z,100114.19
2023-06-14T00:40:18.947Z,100112.70
2023-06-14T00:40:41.858Z,100114.20
2023-06-14T00:41:04.832Z,100113.25
2023-06-14T00:41:28.378Z,100112.47
2023-06-14T00:41:50.761Z,100109.05
2023-06-14T00:42:13.194Z,100112.78
2023-06-14T00:42:35.656Z,100113.36
2023-06-14T00:42:58.266Z,100112.48
2023-06-14T00:43:20.866Z,100112.78
2023-06-14T00:43:43.255Z,100111.48
2023-06-14T00:44:05.783Z,100116.27
2023-06-14T00:44:28.060Z,100113.66
2023-06-14T00:44:50.461Z,100115.73
2023-06-14T00:45:14.494Z,100115.44
2023-06-14T00:45:37.299Z,100115.89
2023-06-14T00:45:59.741Z,100116.67
2023-06-14T00:46:23.529Z,100115.30
2023-06-14T00:46:49.234Z,100116.95
2023-06-14T00:47:11.797Z,100117.09
2023-06-14T00:47:34.218Z,100117.61
2023-06-14T00:47:56.918Z,100114.02
2023-06-14T00:48:19.504Z,100115.14
2023-06-14T00:48:41.931Z,100117.45
2023-06-14T00:49:04.236Z,100115.42
2023-06-14T00:49:26.696Z,100114.93
2023-06-14T00:49:49.324Z,100115.69
2023-06-14T00:50:12.734Z,100114.25
2023-06-14T00:50:35.454Z,100115.29
2023-06-14T00:50:57.945Z,100115.50
2023-06-14T00:51:20.252Z,100116.27
2023-06-14T00:51:45.380Z,100113.04
2023-06-14T00:52:08.111Z,100116.19
2023-06-14T00:52:30.831Z,100116.23
2023-06-14T00:52:53.632Z,100113.35
2023-06-14T00:53:16.533Z,100117.70
2023-06-14T00:53:41.156Z,100114.36
2023-06-14T00:54:03.507Z,100116.94
2023-06-14T00:54:25.877Z,100114.63
2023-06-14T00:54:48.251Z,100113.89
2023-06-14T00:55:10.526Z,100114.01
2023-06-14T00:55:34.066Z,100117.89
2023-06-14T00:55:56.394Z,100117.44
2023-06-14T00:56:22.256Z,100115.13
2023-06-14T00:56:46.798Z,100117.04
2023-06-14T00:57:09.697Z,100115.21
2023-06-14T00:57:32.022Z,100115.57
2023-06-14T00:57:55.497Z,100113.30
2023-06-14T00:58:17.914Z,100117.27
2023-06-14T00:58:40.614Z,100118.05
2023-06-14T00:59:03.021Z,100114.01
2023-06-14T00:59:25.732Z,100113.34
2023-06-14T00:59:50.130Z,100115.92
2023-06-14T01:00:13.433Z,100114.03
2023-06-14T01:00:35.911Z,100113.17
2023-06-14T01:00:59.231Z,100112.60
2023-06-14T01:01:22.126Z,100110.77
2023-06-14T01:01:44.985Z,100110.58
2023-06-14T01:02:07.481Z,100109.80
2023-06-14T01:02:33.027Z,100109.85
2023-06-14T01:02:56.458Z,100110.52
2023-06-14T01:03:24.138Z,100108.67
2023-06-14T01:03:47.105Z,100109.95
2023-06-14T01:04:09.726Z,100110.48
2023-06-14T01:04:32.234Z,100109.59
2023-06-14T01:04:54.967Z,100109.83
2023-06-14T01:05:17.645Z,100107.78
2023-06-14T01:05:40.253Z,100111.58
2023-06-14T01:06:11.863Z,100107.59
2023-06-14T01:06:43.508Z,100107.77
2023-06-14T01:07:15.255Z,100104.50
2023-06-14T01:07:53.101Z,100102.69
2023-06-14T01:08:29.918Z,100105.16
2023-06-14T01:08:53.136Z,100106.73
2023-06-14T01:09:21.603Z,100108.70
2023-06-14T01:09:59.024Z,100108.25
2023-06-14T01:10:22.358Z,100110.14
2023-06-14T01:10:54.379Z,100107.86
2023-06-14T01:11:18.161Z,100110.41
2023-06-14T01:11:46.640Z,100111.24
2023-06-14T01:12:13.031Z,100115.24
2023-06-14T01:12:40.907Z,100113.52
2023-06-14T01:13:05.913Z,100112.77
2023-06-14T01:13:30.565Z,100115.36
2023-06-14T01:13:53.006Z,100116.23
2023-06-14T01:14:19.184Z,100116.70
2023-06-14T01:14:42.201Z,100116.98
2023-06-14T01:15:04.804Z,100117.88
2023-06-14T01:15:27.534Z,100117.45
2023-06-14T01:15:50.009Z,100116.14
2023-06-14T01:16:12.436Z,100117.38
2023-06-14T01:16:37.444Z,100117.71
2023-06-14T01:17:01.865Z,100118.59
2023-06-14T01:17:24.562Z,100118.34
2023-06-14T01:17:48.067Z,100122.44
2023-06-14T01:18:18.978Z,100119.77
2023-06-14T01:18:43.104Z,100123.11
2023-06-14T01:19:06.473Z,100119.31
2023-06-14T01:19:29.493Z,100119.92
2023-06-14T01:19:59.249Z,100120.92
2023-06-14T01:20:22.411Z,100121.29
2023-06-14T01:20:46.155Z,100120.22
2023-06-14T01:21:21.785Z,100120.80
2023-06-14T01:21:45.108Z,100118.98
2023-06-14T01:22:07.435Z,100122.52
2023-06-14T01:22:30.002Z,100123.63
2023-06-14T01:22:53.261Z,100118.14
2023-06-14T01:23:23.084Z,100122.42
2023-06-14T01:23:45.567Z,100120.20
2023-06-14T01:24:08.624Z,100122.41
2023-06-14T01:24:33.567Z,100122.96
2023-06-14T01:24:59.237Z,100122.09
2023-06-14T01:25:24.992Z,100123.36
2023-06-14T01:25:48.216Z,100121.47
2023-06-14T01:26:10.980Z,100121.18
2023-06-14T01:26:33.343Z,100121.06
2023-06-14T01:26:57.348Z,100120.70
2023-06-14T01:27:20.359Z,100119.34
2023-06-14T01:27:43.373Z,100121.63
2023-06-14T01:28:11.677Z,100120.63
2023-06-14T01:28:35.080Z,100118.65
2023-06-14T01:28:59.775Z,100119.48
2023-06-14T01:29:23.133Z,100116.88
2023-06-14T01:29:47.212Z,100120.59
2023-06-14T01:30:12.711Z,100120.68
2023-06-14T01:30:36.522Z,100120.80
2023-06-14T01:31:01.624Z,100117.27
2023-06-14T01:31:23.978Z,100117.55
2023-06-14T01:31:46.580Z,100119.44
2023-06-14T01:32:09.186Z,100118.50
2023-06-14T01:32:31.554Z,100115.61
2023-06-14T01:32:56.769Z,100117.04
2023-06-14T01:33:21.195Z,100119.59
2023-06-14T01:33:43.478Z,100117.95
2023-06-14T01:34:05.879Z,100114.77
2023-06-14T01:34:28.393Z,100117.91
2023-06-14T01:34:50.716Z,100114.52
2023-06-14T01:35:13.189Z,100116.88
2023-06-14T01:35:36.090Z,100116.38
2023-06-14T01:35:58.692Z,100118.77
2023-06-14T01:36:21.392Z,100116.84
2023-06-14T01:36:45.042Z,100115.90
2023-06-14T01:37:07.526Z,100118.99
2023-06-14T01:37:30.118Z,100117.81
2023-06-14T01:37:53.285Z,100118.21
2023-06-14T01:38:16.043Z,100121.56
2023-06-14T01:38:38.385Z,100117.98
2023-06-14T01:39:01.149Z,100122.77
2023-06-14T01:39:24.054Z,100120.49
2023-06-14T01:39:46.789Z,100122.87
2023-06-14T01:40:10.077Z,100126.41
2023-06-14T01:40:32.784Z,100126.71
2023-06-14T01:40:56.101Z,100126.67
2023-06-14T01:41:21.067Z,100124.82
2023-06-14T01:41:44.016Z,100124.63
2023-06-14T01:42:08.016Z,100124.29
2023-06-14T01:42:30.716Z,100126.36
2023-06-14T01:42:53.104Z,100130.02
2023-06-14T01:43:15.933Z,100129.36
2023-06-14T01:43:38.419Z,100130.23
2023-06-14T01:44:01.224Z,100125.81
2023-06-14T01:44:23.659Z,100127.79
2023-06-14T01:44:46.271Z,100126.55
2023-06-14T01:45:08.971Z,100128.29
2023-06-14T01:45:31.249Z,100127.60
2023-06-14T01:45:53.748Z,100125.41
2023-06-14T01:46:16.516Z,100126.56
2023-06-14T01:46:39.056Z,100123.30
2023-06-14T01:47:01.389Z,100123.09
2023-06-14T01:47:23.640Z,100125.40
2023-06-14T01:47:46.834Z,100124.59
2023-06-14T01:48:09.717Z,100120.41
2023-06-14T01:48:32.348Z,100122.09
2023-06-14T01:48:54.674Z,100122.71
2023-06-14T01:49:17.164Z,100122.65
2023-06-14T01:49:39.756Z,100119.04
2023-06-14T01:50:02.820Z,100121.52
2023-06-14T01:50:29.727Z,100120.40
2023-06-14T01:50:53.907Z,100121.45
2023-06-14T01:51:16.751Z,100118.05
2023-06-14T01:51:39.216Z,100119.55
2023-06-14T01:52:01.507Z,100119.55
2023-06-14T01:52:25.574Z,100118.13
2023-06-14T01:52:48.215Z,100118.41
2023-06-14T01:53:10.988Z,100117.48
2023-06-14T01:53:33.547Z,100118.20
2023-06-14T01:53:56.409Z,100119.19
2023-06-14T01:54:18.669Z,100119.86
2023-06-14T01:54:43.368Z,100117.92
2023-06-14T01:55:06.345Z,100120.93
2023-06-14T01:55:29.146Z,100119.82
2023-06-14T01:55:51.439Z,100117.59
2023-06-14T01:56:14.120Z,100117.09
2023-06-14T01:56:36.519Z,100118.05
2023-06-14T01:56:58.843Z,100117.22
2023-06-14T01:57:22.876Z,100117.41
2023-06-14T01:57:45.175Z,100117.41
2023-06-14T01:58:07.560Z,100117.79
2023-06-14T01:58:30.041Z,100115.84
2023-06-14T01:58:55.028Z,100117.90
2023-06-14T01:59:17.403Z,100120.71
2023-06-14T01:59:39.894Z,100118.65
2023-06-14T02:00:02.399Z,100116.46
2023-06-14T02:00:35.108Z,100118.90
2023-06-14T02:00:58.024Z,100119.90
2023-06-14T02:01:22.610Z,100120.67
2023-06-14T02:01:45.838Z,100120.09
2023-06-14T02:02:08.296Z,100123.95
2023-06-14T02:02:30.980Z,100121.55
2023-06-14T02:02:53.696Z,100124.69
2023-06-14T02:03:16.586Z,100121.60
2023-06-14T02:03:40.142Z,100123.66
2023-06-14T02:04:02.897Z,100126.72
2023-06-14T02:04:25.343Z,100124.48
2023-06-14T02:04:48.812Z,100127.09
2023-06-14T02:05:11.773Z,100125.23
2023-06-14T02:05:36.090Z,100123.27
2023-06-14T02:05:58.776Z,100125.58
2023-06-14T02:06:21.534Z,100123.91
2023-06-14T02:06:43.902Z,100126.72
2023-06-14T02:07:08.093Z,100123.30
2023-06-14T02:07:30.533Z,100123.83
2023-06-14T02:07:52.965Z,100123.91
2023-06-14T02:08:15.291Z,100123.34
2023-06-14T02:08:37.759Z,100124.16
2023-06-14T02:09:00.260Z,100122.46
2023-06-14T02:09:25.034Z,100123.50
2023-06-14T02:09:50.830Z,100125.15
2023-06-14T02:10:13.397Z,100120.90
2023-06-14T02:10:37.052Z,100123.34
2023-06-14T02:10:59.519Z,100124.15
2023-06-14T02:11:21.914Z,100124.27
2023-06-14T02:11:44.813Z,100121.83
2023-06-14T02:12:07.559Z,100120.34
2023-06-14T02:12:30.036Z,100120.83
2023-06-14T02:12:54.064Z,100124.02
2023-06-14T02:13:17.274Z,100123.11
2023-06-14T02:13:39.566Z,100123.73
2023-06-14T02:14:03.004Z,100124.59
2023-06-14T02:14:25.492Z,100124.10
2023-06-14T02:14:47.786Z,100123.23
2023-06-14T02:15:11.279Z,100124.23
2023-06-14T02:15:36.817Z,100123.11
2023-06-14T02:16:00.997Z,100123.77
2023-06-14T02:16:25.868Z,100120.98
2023-06-14T02:16:50.423Z,100122.75
2023-06-14T02:17:13.033Z,100122.34
2023-06-14T02:17:36.446Z,100123.54
2023-06-14T02:18:03.503Z,100126.79
2023-06-14T02:18:28.957Z,100123.98
2023-06-14T02:18:52.497Z,100125.14
2023-06-14T02:19:14.764Z,100121.27
2023-06-14T02:19:37.237Z,100125.55
2023-06-14T02:19:59.629Z,100124.88
2023-06-14T02:20:22.134Z,100124.19
2023-06-14T02:20:44.523Z,100123.61
2023-06-14T02:21:07.961Z,100125.48
2023-06-14T02:21:30.652Z,100122.48
2023-06-14T02:21:53.048Z,100126.82
2023-06-14T02:22:16.291Z,100123.89
2023-06-14T02:22:38.591Z,100123.98
2023-06-14T02:23:03.014Z,100121.45
2023-06-14T02:23:27.562Z,100121.09
2023-06-14T02:23:50.012Z,100122.45
2023-06-14T02:24:12.638Z,100122.30
2023-06-14T02:24:35.261Z,100123.61
2023-06-14T02:25:02.542Z,100121.76
2023-06-14T02:25:25.204Z,100121.69
2023-06-14T02:25:47.672Z,100122.64
2023-06-14T02:26:10.137Z,100127.55
2023-06-14T02:26:33.491Z,100124.77
2023-06-14T02:26:56.193Z,100123.38
2023-06-14T02:27:18.589Z,100124.27
2023-06-14T02:27:41.313Z,100126.83
2023-06-14T02:28:04.003Z,100124.23
2023-06-14T02:28:27.929Z,100125.31
2023-06-14T02:28:50.434Z,100129.23
2023-06-14T02:29:15.890Z,100128.65
2023-06-14T02:29:38.193Z,100128.04
2023-06-14T02:30:01.435Z,100129.94
2023-06-14T02:30:23.770Z,100128.40
2023-06-14T02:30:46.209Z,100129.31
2023-06-14T02:31:08.730Z,100130.50
2023-06-14T02:31:31.253Z,100131.52
2023-06-14T02:31:53.658Z,100131.81
2023-06-14T02:32:16.978Z,100128.84
2023-06-14T02:32:39.683Z,100130.37
2023-06-14T02:33:02.585Z,100131.11
2023-06-14T02:33:26.531Z,100131.27
2023-06-14T02:33:48.982Z,100128.77
2023-06-14T02:34:11.689Z,100128.96
2023-06-14T02:34:35.128Z,100131.81
2023-06-14T02:34:58.517Z,100131.64
2023-06-14T02:35:21.942Z,100134.36
2023-06-14T02:35:44.449Z,100132.92
2023-06-14T02:36:07.299Z,100132.39
2023-06-14T02:36:33.339Z,100133.59
2023-06-14T02:36:56.752Z,100133.79
2023-06-14T02:37:19.148Z,100136.67
2023-06-14T02:37:43.841Z,100135.56
2023-06-14T02:38:06.171Z,100135.23
2023-06-14T02:38:28.804Z,100135.48
2023-06-14T02:38:51.121Z,100136.48
2023-06-14T02:39:13.641Z,100135.83
2023-06-14T02:39:36.534Z,100139.08
2023-06-14T02:39:59.885Z,100136.81
2023-06-14T02:40:22.731Z,100138.50
2023-06-14T02:40:45.762Z,100138.34
2023-06-14T02:41:08.171Z,100137.23
2023-06-14T02:41:30.726Z,100138.05
2023-06-14T02:41:53.163Z,100138.41
2023-06-14T02:42:16.776Z,100139.60
2023-06-14T02:42:39.032Z,100138.38
2023-06-14T02:43:01.562Z,100136.39
2023-06-14T02:43:23.821Z,100139.64
2023-06-14T02:43:46.264Z,100140.45
2023-06-14T02:44:08.654Z,100138.98
2023-06-14T02:44:31.103Z,100140.29
2023-06-14T02:44:56.108Z,100138.43
2023-06-14T02:45:18.816Z,100142.80
2023-06-14T02:45:41.886Z,100139.73
2023-06-14T02:46:04.330Z,100138.17
2023-06-14T02:46:26.608Z,100138.91
2023-06-14T02:46:49.018Z,100137.54
2023-06-14T02:47:11.321Z,100139.96
2023-06-14T02:47:34.963Z,100139.69
2023-06-14T02:47:57.579Z,100141.13
2023-06-14T02:48:20.145Z,100140.92
2023-06-14T02:48:42.551Z,100141.05
2023-06-14T02:49:06.382Z,100139.42
2023-06-14T02:49:29.030Z,100139.36
2023-06-14T02:49:51.374Z,100139.81
2023-06-14T02:50:13.893Z,100137.22
2023-06-14T02:50:36.608Z,100140.40
2023-06-14T02:50:58.978Z,100140.84
2023-06-14T02:51:21.226Z,100140.02
2023-06-14T02:51:43.673Z,100141.71
2023-06-14T02:52:06.376Z,100140.44
2023-06-14T02:52:28.776Z,100140.39
2023-06-14T02:52:51.170Z,100142.52
2023-06-14T02:53:13.772Z,100143.50
2023-06-14T02:53:36.622Z,100141.69
2023-06-14T02:53:59.188Z,100146.07
2023-06-14T02:54:21.480Z,100143.96
2023-06-14T02:54:44.183Z,100144.87
2023-06-14T02:55:07.604Z,100143.27
2023-06-14T02:55:30.005Z,100144.36
2023-06-14T02:55:53.150Z,100147.59
2023-06-14T02:56:15.620Z,100147.89
2023-06-14T02:56:38.354Z,100143.02
2023-06-14T02:57:01.437Z,100143.55
2023-06-14T02:57:24.693Z,100146.71
2023-06-14T02:57:49.340Z,100142.67
2023-06-14T02:58:12.218Z,100143.21
2023-06-14T02:58:34.538Z,100144.25
2023-06-14T02:58:57.007Z,100143.30
2023-06-14T02:59:20.530Z,100144.16
2023-06-14T02:59:43.031Z,100143.98
2023-06-14T03:00:06.562Z,100144.73
2023-06-14T03:00:31.939Z,100143.71
2023-06-14T03:00:55.121Z,100145.60
2023-06-14T03:01:18.373Z,100144.73
2023-06-14T03:01:42.401Z,100146.02
2023-06-14T03:02:06.900Z,100145.95
2023-06-14T03:02:29.863Z,100145.02
2023-06-14T03:02:52.842Z,100147.92
2023-06-14T03:03:17.552Z,100148.13
2023-06-14T03:03:45.399Z,100145.98
2023-06-14T03:04:08.668Z,100149.66
2023-06-14T03:04:38.233Z,100150.08
2023-06-14T03:05:05.678Z,100148.48
2023-06-14T03:05:29.467Z,100149.94
2023-06-14T03:05:52.488Z,100150.35
2023-06-14T03:06:18.327Z,100149.95
2023-06-14T03:06:41.506Z,100150.89
2023-06-14T03:07:10.272Z,100151.06
2023-06-14T03:07:35.850Z,100148.02
2023-06-14T03:07:59.285Z,100146.52
2023-06-14T03:08:21.777Z,100149.48
2023-06-14T03:08:47.099Z,100146.39
2023-06-14T03:09:10.988Z,100144.53
2023-06-14T03:09:34.790Z,100145.60
2023-06-14T03:09:57.499Z,100142.41
2023-06-14T03:10:19.999Z,100140.89
2023-06-14T03:10:42.700Z,100142.00
2023-06-14T03:11:06.308Z,100145.48
2023-06-14T03:11:29.236Z,100143.00
2023-06-14T03:11:52.897Z,100143.78
2023-06-14T03:12:16.207Z,100141.64
2023-06-14T03:12:38.988Z,100143.33
2023-06-14T03:13:02.919Z,100142.49
2023-06-14T03:13:25.239Z,100145.92
2023-06-14T03:13:48.229Z,100144.20
2023-06-14T03:14:12.628Z,100145.48
2023-06-14T03:14:36.175Z,100143.11
2023-06-14T03:15:03.133Z,100143.45
2023-06-14T03:15:26.010Z,100145.60
2023-06-14T03:15:51.402Z,100146.52
2023-06-14T03:16:13.979Z,100145.34
2023-06-14T03:16:38.445Z,100145.39
2023-06-14T03:17:01.887Z,100146.88
2023-06-14T03:17:25.657Z,100143.38
2023-06-14T03:17:50.738Z,100147.52
2023-06-14T03:18:13.226Z,100146.33
2023-06-14T03:18:38.083Z,100150.02
2023-06-14T03:19:01.296Z,100147.38
2023-06-14T03:19:25.738Z,100145.19
2023-06-14T03:19:48.339Z,100146.25
2023-06-14T03:20:11.230Z,100145.92
2023-06-14T03:20:34.304Z,100149.73
2023-06-14T03:20:58.193Z,100147.35
2023-06-14T03:21:21.823Z,100153.22
2023-06-14T03:21:46.096Z,100150.16
2023-06-14T03:22:08.861Z,100148.34
2023-06-14T03:22:35.450Z,100151.39
2023-06-14T03:23:01.085Z,100151.22
2023-06-14T03:23:24.492Z,100151.96
2023-06-14T03:23:47.385Z,100151.39
2023-06-14T03:24:10.720Z,100149.90
2023-06-14T03:24:37.941Z,100150.29
2023-06-14T03:25:05.773Z,100150.84
2023-06-14T03:25:30.878Z,100150.63
2023-06-14T03:25:53.369Z,100148.45
2023-06-14T03:26:19.179Z,100147.02
2023-06-14T03:26:43.094Z,100151.35
2023-06-14T03:27:05.872Z,100153.81
2023-06-14T03:27:30.032Z,100151.25
2023-06-14T03:27:53.015Z,100150.55
2023-06-14T03:28:15.522Z,100148.40
2023-06-14T03:28:37.793Z,100150.05
2023-06-14T03:29:00.133Z,100150.70
2023-06-14T03:29:22.918Z,100149.34
2023-06-14T03:29:45.313Z,100150.23
2023-06-14T03:30:09.178Z,100151.62
2023-06-14T03:30:32.466Z,100151.89
2023-06-14T03:30:57.534Z,100151.31
2023-06-14T03:31:20.661Z,100152.80
2023-06-14T03:31:57.162Z,100150.16
2023-06-14T03:32:19.781Z,100153.40
2023-06-14T03:32:42.388Z,100152.83
2023-06-14T03:33:06.150Z,100153.81
2023-06-14T03:33:29.126Z,100152.86
2023-06-14T03:33:51.827Z,100155.25
2023-06-14T03:34:14.178Z,100151.90
2023-06-14T03:34:40.088Z,100154.99
2023-06-14T03:35:03.288Z,100153.46
2023-06-14T03:35:25.684Z,100155.48
2023-06-14T03:35:48.493Z,100152.81
2023-06-14T03:36:10.965Z,100150.16
2023-06-14T03:36:34.863Z,100151.90
2023-06-14T03:36:57.560Z,100154.25
2023-06-14T03:37:20.032Z,100150.34
2023-06-14T03:37:42.817Z,100148.85
2023-06-14T03:38:05.553Z,100152.23
2023-06-14T03:38:28.084Z,100148.56
2023-06-14T03:38:50.975Z,100146.92
2023-06-14T03:39:13.449Z,100147.54
2023-06-14T03:39:37.177Z,100146.39
2023-06-14T03:39:59.727Z,100148.61
2023-06-14T03:40:22.796Z,100149.73
2023-06-14T03:40:47.951Z,100148.37
2023-06-14T03:41:10.452Z,100144.45
2023-06-14T03:41:33.874Z,100147.95
2023-06-14T03:41:56.612Z,100145.27
2023-06-14T03:42:19.385Z,100145.35
2023-06-14T03:42:41.992Z,100145.92
2023-06-14T03:43:04.312Z,100144.52
2023-06-14T03:43:26.580Z,100139.40
2023-06-14T03:43:49.521Z,100144.92
2023-06-14T03:44:11.772Z,100135.71
2023-06-14T03:44:34.108Z,100139.67
2023-06-14T03:44:56.892Z,100135.25
2023-06-14T03:45:19.497Z,100136.36
2023-06-14T03:45:41.817Z,100134.10
2023-06-14T03:46:04.397Z,100134.06
2023-06-14T03:46:27.912Z,100131.83
2023-06-14T03:46:51.333Z,100131.66
2023-06-14T03:47:13.673Z,100135.05
2023-06-14T03:47:36.299Z,100132.41
2023-06-14T03:47:59.722Z,100132.95
2023-06-14T03:48:22.837Z,100130.38
2023-06-14T03:48:46.494Z,100133.27
2023-06-14T03:49:09.458Z,100133.02
2023-06-14T03:49:31.903Z,100132.16
2023-06-14T03:49:54.521Z,100133.98
2023-06-14T03:50:17.398Z,100130.84
2023-06-14T03:50:40.442Z,100134.07
2023-06-14T03:51:03.441Z,100130.44
2023-06-14T03:51:26.707Z,100131.30
2023-06-14T03:51:52.667Z,100132.39
2023-06-14T03:52:18.549Z,100132.92
2023-06-14T03:52:44.006Z,100130.83
2023-06-14T03:53:06.931Z,100129.71
2023-06-14T03:53:31.051Z,100131.50
2023-06-14T03:54:16.173Z,100133.14
2023-06-14T03:56:09.332Z,100132.35
2023-06-14T03:56:38.263Z,100130.27
2023-06-14T03:57:02.428Z,100129.73
2023-06-14T03:57:25.853Z,100132.75
2023-06-14T03:57:49.471Z,100130.71
2023-06-14T03:58:14.528Z,100130.92
2023-06-14T03:58:37.480Z,100132.90
2023-06-14T03:59:00.156Z,100131.85
2023-06-14T03:59:23.101Z,100130.66
2023-06-14T03:59:45.656Z,100131.89
2023-06-14T04:00:09.580Z,100132.11
2023-06-14T04:00:37.228Z,100133.50
2023-06-14T04:01:00.414Z,100131.78
2023-06-14T04:01:26.455Z,100133.46
2023-06-14T04:01:48.903Z,100132.52
2023-06-14T04:02:13.156Z,100132.14
2023-06-14T04:02:36.141Z,100134.84
2023-06-14T04:02:58.737Z,100135.28
2023-06-14T04:03:25.072Z,100133.23
2023-06-14T04:03:48.164Z,100132.58
2023-06-14T04:04:10.766Z,100127.30
2023-06-14T04:04:33.273Z,100130.02
2023-06-14T04:04:56.362Z,100126.67
2023-06-14T04:05:20.301Z,100130.14
2023-06-14T04:05:46.002Z,100125.64
2023-06-14T04:06:09.020Z,100129.58
2023-06-14T04:06:34.144Z,100126.40
2023-06-14T04:06:57.868Z,100124.55
2023-06-14T04:07:21.083Z,100124.13
2023-06-14T04:07:46.284Z,100120.74
2023-06-14T04:08:10.389Z,100121.15
2023-06-14T04:08:33.119Z,100124.69
2023-06-14T04:08:55.386Z,100124.77
2023-06-14T04:09:20.275Z,100126.80
2023-06-14T04:09:42.733Z,100122.92
2023-06-14T04:10:05.554Z,100124.35
2023-06-14T04:10:28.060Z,100124.34
2023-06-14T04:10:50.343Z,100126.61
2023-06-14T04:11:12.969Z,100124.88
2023-06-14T04:11:37.490Z,100123.61
2023-06-14T04:11:59.930Z,100125.68
2023-06-14T04:12:22.180Z,100124.03
2023-06-14T04:12:44.990Z,100120.97
2023-06-14T04:13:08.637Z,100125.06
2023-06-14T04:13:30.949Z,100124.59
2023-06-14T04:13:55.001Z,100122.94
2023-06-14T04:14:17.258Z,100126.16
2023-06-14T04:14:40.898Z,100125.70
2023-06-14T04:15:15.807Z,100125.54
2023-06-14T04:15:45.000Z,100125.55
2023-06-14T04:16:09.972Z,100129.09
2023-06-14T04:16:33.441Z,100126.16
2023-06-14T04:16:56.591Z,100128.43
2023-06-14T04:17:18.890Z,100130.11
2023-06-14T04:17:41.527Z,100131.35
2023-06-14T04:18:04.098Z,100130.23
2023-06-14T04:18:27.120Z,100131.30
2023-06-14T04:18:52.713Z,100129.04
2023-06-14T04:19:16.244Z,100127.70
2023-06-14T04:19:38.998Z,100134.38
2023-06-14T04:20:01.722Z,100127.65
2023-06-14T04:20:25.592Z,100128.55
2023-06-14T04:20:47.929Z,100128.71
2023-06-14T04:21:10.536Z,100126.92
2023-06-14T04:21:36.210Z,100130.39
2023-06-14T04:22:02.313Z,100128.45
2023-06-14T04:22:29.384Z,100125.69
2023-06-14T04:22:53.926Z,100123.62
2023-06-14T04:23:19.080Z,100125.82
2023-06-14T04:23:45.161Z,100128.04
2023-06-14T04:24:14.381Z,100129.27
2023-06-14T04:24:38.159Z,100128.45
2023-06-14T04:25:05.681Z,100127.26
2023-06-14T04:25:29.676Z,100128.78
2023-06-14T04:25:52.505Z,100129.44
2023-06-14T04:26:15.849Z,100126.13
2023-06-14T04:26:39.139Z,100128.56
2023-06-14T04:27:04.919Z,100128.96
2023-06-14T04:27:27.929Z,100127.77
2023-06-14T04:27:51.250Z,100127.84
2023-06-14T04:28:16.466Z,100131.10
2023-06-14T04:28:42.101Z,100129.77
2023-06-14T04:29:06.831Z,100128.95
2023-06-14T04:29:36.183Z,100131.96
2023-06-14T04:30:03.794Z,100129.08
2023-06-14T04:30:33.151Z,100132.75
2023-06-14T04:30:56.870Z,100128.79
2023-06-14T04:31:19.654Z,100129.53